Time;durP1;ratioP1;P1;durP2;ratioP2;P2;SDS_P1;SDS_P2;PMS_P1;PMS_P2;Temp;Humidity;BMP_temperature;BMP_pressure;BME280_temperature;BME280_humidity;BME280_pressure;Samples;Min_cycle;Max_cycle;Signal;HPM_P1;HPM_P2
2020/12/18 00:00:37;;;;;;;43.47;7.45;;;;;;;;;;4969995;28;20512;-76
2020/12/18 00:03:04;;;;;;;43.78;6.85;;;;;;;;;;4964305;28;20132;-76
2020/12/18 00:05:32;;;;;;;34.00;6.40;;;;;;;;;;4968272;28;20047;-76
2020/12/18 00:07:59;;;;;;;39.63;7.30;;;;;;;;;;4968559;28;20039;-76
2020/12/18 00:10:29;;;;;;;33.03;6.25;;;;;;;;;;4967240;28;20047;-76
2020/12/18 00:12:56;;;;;;;34.70;6.82;;;;;;;;;;4965323;28;20556;-75
2020/12/18 00:15:26;;;;;;;39.08;6.93;;;;;;;;;;4961169;28;20051;-76
2020/12/18 00:17:52;;;;;;;38.53;6.47;;;;;;;;;;4970383;28;20046;-75
2020/12/18 00:20:19;;;;;;;42.20;7.53;;;;;;;;;;4964527;28;20106;-75
2020/12/18 00:22:45;;;;;;;40.73;7.43;;;;;;;;;;4967891;28;20051;-75
2020/12/18 00:25:12;;;;;;;50.97;8.05;;;;;;;;;;4964775;28;20129;-75
2020/12/18 00:27:41;;;;;;;53.92;7.78;;;;;;;;;;4968535;28;20043;-75
2020/12/18 00:30:08;;;;;;;46.88;7.55;;;;;;;;;;4965958;28;20086;-75
2020/12/18 00:32:35;;;;;;;55.75;8.65;;;;;;;;;;4968971;28;21985;-75
2020/12/18 00:35:03;;;;;;;48.28;9.13;;;;;;;;;;4965715;28;20051;-75
2020/12/18 00:37:29;;;;;;;41.80;7.35;;;;;;;;;;4968026;28;20410;-76
2020/12/18 00:39:56;;;;;;;49.10;8.18;;;;;;;;;;4967920;28;20064;-75
2020/12/18 00:42:22;;;;;;;43.38;8.25;;;;;;;;;;4963430;28;20494;-75
2020/12/18 00:44:48;;;;;;;52.58;8.95;;;;;;;;;;4959502;28;20051;-74
2020/12/18 00:47:15;;;;;;;43.10;8.10;;;;;;;;;;4966895;28;20066;-75
2020/12/18 00:49:41;;;;;;;54.97;9.10;;;;;;;;;;4965472;28;20141;-75
2020/12/18 00:52:08;;;;;;;45.92;7.78;;;;;;;;;;4964742;28;20047;-75
2020/12/18 00:54:34;;;;;;;65.20;7.97;;;;;;;;;;4949001;28;20080;-75
2020/12/18 00:57:01;;;;;;;53.85;8.00;;;;;;;;;;4966211;28;20043;-75
2020/12/18 00:59:27;;;;;;;48.95;8.13;;;;;;;;;;4948982;28;20151;-74
2020/12/18 01:02:00;;;;;;;51.47;8.95;;;;;;;;;;4964253;28;20053;-75
2020/12/18 01:04:27;;;;;;;52.30;8.57;;;;;;;;;;4945207;28;20079;-75
2020/12/18 01:06:54;;;;;;;51.13;7.87;;;;;;;;;;4942348;28;20131;-75
2020/12/18 01:09:21;;;;;;;44.85;9.38;;;;;;;;;;4935901;29;20345;-75
2020/12/18 01:11:48;;;;;;;44.55;8.75;;;;;;;;;;4938379;29;20074;-74
2020/12/18 01:14:15;;;;;;;64.25;8.18;;;;;;;;;;4943328;28;20073;-75
2020/12/18 01:16:56;;;;;;;48.45;8.43;;;;;;;;;;4939405;29;20083;-74
2020/12/18 01:19:24;;;;;;;54.17;9.13;;;;;;;;;;4939074;29;20031;-74
2020/12/18 01:21:51;;;;;;;46.83;8.73;;;;;;;;;;4928157;29;20511;-74
2020/12/18 01:24:22;;;;;;;50.28;9.52;;;;;;;;;;4928910;28;20062;-74
2020/12/18 01:26:53;;;;;;;47.60;8.77;;;;;;;;;;4928602;29;20099;-74
2020/12/18 01:29:20;;;;;;;61.92;9.52;;;;;;;;;;4943210;29;20036;-74
2020/12/18 01:31:50;;;;;;;55.10;9.35;;;;;;;;;;4924459;29;20051;-74
2020/12/18 01:34:17;;;;;;;63.88;10.20;;;;;;;;;;4928677;29;20193;-74
2020/12/18 01:36:44;;;;;;;53.50;9.57;;;;;;;;;;4926471;29;20071;-74
2020/12/18 01:39:23;;;;;;;56.92;10.13;;;;;;;;;;4944928;28;20052;-74
2020/12/18 01:41:50;;;;;;;56.78;11.43;;;;;;;;;;4926828;29;20051;-74
2020/12/18 01:44:16;;;;;;;55.83;10.63;;;;;;;;;;4924841;29;20507;-74
2020/12/18 01:46:49;;;;;;;52.15;9.27;;;;;;;;;;4923414;29;20040;-74
2020/12/18 01:49:15;;;;;;;40.72;9.48;;;;;;;;;;4928363;29;20522;-75
2020/12/18 01:51:50;;;;;;;46.00;10.27;;;;;;;;;;4944130;29;20303;-74
2020/12/18 01:54:37;;;;;;;46.03;9.75;;;;;;;;;;4937527;29;20083;-75
2020/12/18 01:57:04;;;;;;;54.03;10.55;;;;;;;;;;4943386;28;20130;-74
2020/12/18 01:59:40;;;;;;;47.65;10.18;;;;;;;;;;4926344;29;20072;-74
2020/12/18 02:02:16;;;;;;;50.08;9.20;;;;;;;;;;4921910;29;20051;-74
2020/12/18 02:04:51;;;;;;;54.45;10.38;;;;;;;;;;4926783;29;20047;-75
2020/12/18 02:07:21;;;;;;;62.25;9.75;;;;;;;;;;4928756;28;20046;-75
2020/12/18 02:09:58;;;;;;;55.50;9.65;;;;;;;;;;4923373;28;20047;-75
2020/12/18 02:12:31;;;;;;;56.80;9.85;;;;;;;;;;4930961;28;20142;-74
2020/12/18 02:14:57;;;;;;;52.83;9.55;;;;;;;;;;4931208;29;20051;-75
2020/12/18 02:17:33;;;;;;;49.85;9.68;;;;;;;;;;4947259;28;20419;-75
2020/12/18 02:20:03;;;;;;;56.13;10.13;;;;;;;;;;4924565;29;20066;-74
2020/12/18 02:22:30;;;;;;;36.88;9.48;;;;;;;;;;4927013;29;20051;-73
2020/12/18 02:25:07;;;;;;;51.13;8.48;;;;;;;;;;4926252;28;20058;-74
2020/12/18 02:27:35;;;;;;;56.30;9.15;;;;;;;;;;4944240;28;20039;-75
2020/12/18 02:30:10;;;;;;;44.60;8.70;;;;;;;;;;4931161;29;20047;-74
2020/12/18 02:32:54;;;;;;;48.92;9.25;;;;;;;;;;4930186;29;20047;-74
2020/12/18 02:35:20;;;;;;;62.25;9.50;;;;;;;;;;4931930;28;20043;-74
2020/12/18 02:37:47;;;;;;;41.33;8.60;;;;;;;;;;4929441;29;20507;-74
2020/12/18 02:40:24;;;;;;;39.17;8.68;;;;;;;;;;4932436;29;20131;-74
2020/12/18 02:43:09;;;;;;;48.08;8.13;;;;;;;;;;4947283;28;20054;-74
2020/12/18 02:45:37;;;;;;;50.60;8.18;;;;;;;;;;4926656;29;20044;-74
2020/12/18 02:48:20;;;;;;;34.72;7.00;;;;;;;;;;4934073;29;20514;-74
2020/12/18 02:50:55;;;;;;;43.45;7.68;;;;;;;;;;4928607;29;20048;-74
2020/12/18 02:53:22;;;;;;;47.38;8.77;;;;;;;;;;4930918;28;20043;-74
2020/12/18 02:56:07;;;;;;;38.40;7.88;;;;;;;;;;4933529;28;20042;-75
2020/12/18 02:59:02;;;;;;;41.75;8.27;;;;;;;;;;4931730;29;20043;-75
2020/12/18 03:01:29;;;;;;;40.03;7.47;;;;;;;;;;4934937;28;20106;-75
2020/12/18 03:03:56;;;;;;;35.47;8.20;;;;;;;;;;4933810;29;20388;-75
2020/12/18 03:06:34;;;;;;;;;;;;;;;;;;4933594;28;20047;-75
2020/12/18 03:09:01;;;;;;;41.08;8.20;;;;;;;;;;4934582;28;19931;-75
2020/12/18 03:11:29;;;;;;;27.77;8.05;;;;;;;;;;4929171;28;20133;-75
2020/12/18 03:13:56;;;;;;;30.00;9.10;;;;;;;;;;4950101;28;20054;-75
2020/12/18 03:16:26;;;;;;;37.20;8.95;;;;;;;;;;4926480;28;20057;-76
2020/12/18 03:19:13;;;;;;;31.30;8.73;;;;;;;;;;4932865;28;20043;-75
2020/12/18 03:21:40;;;;;;;45.90;10.60;;;;;;;;;;4931446;28;20050;-76
2020/12/18 03:24:30;;;;;;;42.72;10.02;;;;;;;;;;4931734;29;20054;-75
2020/12/18 03:27:12;;;;;;;40.75;9.82;;;;;;;;;;4921767;28;20541;-75
2020/12/18 03:29:47;;;;;;;44.38;10.00;;;;;;;;;;4928642;28;20099;-75
2020/12/18 03:32:16;;;;;;;42.13;11.07;;;;;;;;;;4934831;28;20079;-75
2020/12/18 03:34:54;;;;;;;;;;;;;;;;;;4926260;29;20056;-75
2020/12/18 03:37:25;;;;;;;38.30;8.60;;;;;;;;;;4927413;28;20359;-75
2020/12/18 03:39:52;;;;;;;48.50;10.35;;;;;;;;;;4929957;28;20063;-75
2020/12/18 03:42:24;;;;;;;46.63;10.05;;;;;;;;;;4927981;28;20039;-75
2020/12/18 03:44:51;;;;;;;45.80;10.57;;;;;;;;;;4931197;28;20058;-75
2020/12/18 03:47:37;;;;;;;49.38;9.88;;;;;;;;;;4946727;28;20663;-75
2020/12/18 03:50:18;;;;;;;41.83;9.25;;;;;;;;;;4924855;29;20040;-75
2020/12/18 03:53:03;;;;;;;38.17;8.65;;;;;;;;;;4932113;29;20183;-75
2020/12/18 03:55:31;;;;;;;38.22;9.00;;;;;;;;;;4927351;28;20075;-75
2020/12/18 03:58:19;;;;;;;35.67;8.55;;;;;;;;;;4952093;28;20059;-75
2020/12/18 04:01:06;;;;;;;54.00;9.13;;;;;;;;;;4949538;28;20159;-75
2020/12/18 04:03:32;;;;;;;54.08;9.80;;;;;;;;;;4927492;29;20051;-75
2020/12/18 04:06:00;;;;;;;44.80;9.68;;;;;;;;;;4923307;28;20047;-75
2020/12/18 04:08:27;;;;;;;41.65;9.10;;;;;;;;;;4928537;29;20047;-75
2020/12/18 04:11:32;;;;;;;42.72;9.77;;;;;;;;;;4934727;29;20106;-75
2020/12/18 04:14:12;;;;;;;33.33;7.63;;;;;;;;;;4931238;29;20495;-75
2020/12/18 04:16:49;;;;;;;58.38;9.38;;;;;;;;;;4929319;29;20079;-74
2020/12/18 04:19:17;;;;;;;38.05;8.73;;;;;;;;;;4932822;29;20883;-74
2020/12/18 04:21:44;;;;;;;42.42;8.82;;;;;;;;;;4934533;29;20055;-75
2020/12/18 04:24:19;;;;;;;35.60;8.60;;;;;;;;;;4925063;29;20455;-75
2020/12/18 04:26:47;;;;;;;57.53;9.55;;;;;;;;;;4929009;29;20456;-75
2020/12/18 04:29:14;;;;;;;;;;;;;;;;;;4924760;29;20039;-75
2020/12/18 04:31:41;;;;;;;39.75;7.38;;;;;;;;;;4932968;28;19929;-74
2020/12/18 04:34:08;;;;;;;30.43;8.80;;;;;;;;;;4930334;29;20491;-75
2020/12/18 04:36:51;;;;;;;37.58;8.57;;;;;;;;;;4925032;28;20061;-74
2020/12/18 04:39:27;;;;;;;50.40;8.25;;;;;;;;;;4930180;29;20423;-75
2020/12/18 04:41:53;;;;;;;47.28;9.10;;;;;;;;;;4920950;29;21908;-75
2020/12/18 04:44:20;;;;;;;53.50;8.67;;;;;;;;;;4945501;29;20040;-75
2020/12/18 04:46:58;;;;;;;47.70;8.85;;;;;;;;;;4942263;28;20054;-75
2020/12/18 04:49:26;;;;;;;46.22;9.57;;;;;;;;;;4921299;29;20509;-75
2020/12/18 04:52:12;;;;;;;51.13;8.48;;;;;;;;;;4930675;28;20052;-75
2020/12/18 04:54:50;;;;;;;43.75;9.55;;;;;;;;;;4927155;29;20043;-75
2020/12/18 04:57:48;;;;;;;47.42;9.45;;;;;;;;;;4946517;28;20110;-74
2020/12/18 05:00:21;;;;;;;50.45;9.70;;;;;;;;;;4942130;29;20487;-75
2020/12/18 05:03:23;;;;;;;57.70;10.90;;;;;;;;;;4939420;28;20066;-75
2020/12/18 05:05:51;;;;;;;62.67;10.35;;;;;;;;;;4936140;28;20047;-75
2020/12/18 05:08:18;;;;;;;43.40;9.43;;;;;;;;;;4936980;28;20055;-74
2020/12/18 05:10:45;;;;;;;52.53;10.90;;;;;;;;;;4947509;28;20451;-74
2020/12/18 05:13:25;;;;;;;47.15;11.40;;;;;;;;;;4945933;28;20419;-74
2020/12/18 05:15:59;;;;;;;54.55;10.88;;;;;;;;;;4945231;28;20047;-75
2020/12/18 05:18:40;;;;;;;53.15;11.68;;;;;;;;;;4947492;28;20380;-74
2020/12/18 05:21:25;;;;;;;51.20;11.35;;;;;;;;;;4943425;28;20463;-74
2020/12/18 05:24:01;;;;;;;48.83;10.70;;;;;;;;;;4950674;28;20042;-74
2020/12/18 05:26:41;;;;;;;59.75;11.15;;;;;;;;;;4949273;28;20142;-74
2020/12/18 05:29:09;;;;;;;68.55;13.10;;;;;;;;;;4945559;28;20138;-74
2020/12/18 05:32:00;;;;;;;75.15;12.73;;;;;;;;;;4959854;28;20051;-75
2020/12/18 05:34:39;;;;;;;61.38;11.48;;;;;;;;;;4942196;28;20542;-74
2020/12/18 05:37:37;;;;;;;68.90;12.98;;;;;;;;;;4931165;28;20058;-73
2020/12/18 05:40:25;;;;;;;56.70;11.38;;;;;;;;;;4919843;28;20061;-73
2020/12/18 05:43:14;;;;;;;57.55;10.82;;;;;;;;;;4955781;28;20076;-73
2020/12/18 05:45:44;;;;;;;49.90;10.68;;;;;;;;;;4944028;28;20046;-72
2020/12/18 05:48:43;;;;;;;55.85;12.30;;;;;;;;;;4949689;28;20573;-73
2020/12/18 05:51:26;;;;;;;52.05;12.55;;;;;;;;;;4947797;28;20054;-73
2020/12/18 05:54:05;;;;;;;49.63;11.30;;;;;;;;;;4942529;28;20041;-73
2020/12/18 05:56:33;;;;;;;63.77;12.93;;;;;;;;;;4948343;28;20066;-72
2020/12/18 05:59:10;;;;;;;60.42;12.27;;;;;;;;;;4960554;28;20494;-74
2020/12/18 06:01:46;;;;;;;44.88;11.30;;;;;;;;;;4942265;28;20549;-73
2020/12/18 06:04:32;;;;;;;56.90;11.55;;;;;;;;;;4972328;28;20062;-73
2020/12/18 06:07:01;;;;;;;53.25;11.38;;;;;;;;;;4944272;28;20550;-73
2020/12/18 06:09:47;;;;;;;58.95;12.10;;;;;;;;;;4964458;28;20051;-73
2020/12/18 06:12:18;;;;;;;68.57;11.75;;;;;;;;;;4968749;28;20071;-73
2020/12/18 06:14:45;;;;;;;52.60;11.32;;;;;;;;;;4949512;28;20066;-73
2020/12/18 06:17:26;;;;;;;65.25;11.82;;;;;;;;;;4947531;28;20061;-73
2020/12/18 06:19:58;;;;;;;52.53;11.63;;;;;;;;;;4952841;28;20039;-72
2020/12/18 06:22:33;;;;;;;62.40;12.18;;;;;;;;;;4946612;28;20050;-74
2020/12/18 06:25:12;;;;;;;64.43;12.43;;;;;;;;;;4946431;28;20510;-74
2020/12/18 06:28:05;;;;;;;45.95;11.10;;;;;;;;;;4938206;28;20431;-74
2020/12/18 06:30:57;;;;;;;57.67;11.68;;;;;;;;;;4953696;28;20047;-74
2020/12/18 06:33:57;;;;;;;51.70;10.32;;;;;;;;;;4914865;28;20055;-74
2020/12/18 06:36:43;;;;;;;60.58;11.27;;;;;;;;;;4915471;28;20569;-74
2020/12/18 06:39:24;;;;;;;57.45;11.43;;;;;;;;;;4955284;28;20050;-74
2020/12/18 06:42:15;;;;;;;64.63;12.88;;;;;;;;;;4967741;28;20196;-75
2020/12/18 06:45:08;;;;;;;62.33;12.48;;;;;;;;;;4948669;28;20061;-74
2020/12/18 06:47:54;;;;;;;60.78;11.50;;;;;;;;;;4966906;28;20073;-74
2020/12/18 06:50:39;;;;;;;68.32;12.77;;;;;;;;;;4971823;28;20057;-74
2020/12/18 06:53:34;;;;;;;61.90;11.85;;;;;;;;;;4946458;28;20055;-75
2020/12/18 06:56:26;;;;;;;52.40;11.38;;;;;;;;;;4948990;28;20043;-74
2020/12/18 06:59:24;;;;;;;53.97;11.52;;;;;;;;;;4945162;28;20082;-74
2020/12/18 07:01:51;;;;;;;64.18;12.07;;;;;;;;;;4968817;28;20051;-74
2020/12/18 07:04:18;;;;;;;49.95;10.77;;;;;;;;;;4966338;28;20046;-74
2020/12/18 07:06:44;;;;;;;;;;;;;;;;;;4967336;28;20043;-75
2020/12/18 07:09:11;;;;;;;69.78;11.38;;;;;;;;;;4943214;29;19972;-74
2020/12/18 07:11:37;;;;;;;65.53;12.50;;;;;;;;;;4946445;29;20062;-74
2020/12/18 07:14:03;;;;;;;74.32;16.73;;;;;;;;;;4942157;29;20035;-74
2020/12/18 07:16:34;;;;;;;80.88;13.38;;;;;;;;;;4947889;28;20063;-74
2020/12/18 07:19:03;;;;;;;66.55;13.60;;;;;;;;;;4949121;29;20048;-74
2020/12/18 07:21:35;;;;;;;72.90;12.88;;;;;;;;;;4928020;29;20048;-74
2020/12/18 07:24:02;;;;;;;71.40;13.48;;;;;;;;;;4949819;29;20043;-74
2020/12/18 07:26:28;;;;;;;63.72;13.48;;;;;;;;;;4943462;29;20083;-75
2020/12/18 07:28:55;;;;;;;69.18;13.27;;;;;;;;;;4951468;29;20059;-74
2020/12/18 07:31:22;;;;;;;62.72;13.20;;;;;;;;;;4943573;29;20075;-74
2020/12/18 07:33:48;;;;;;;;;;;;;;;;;;4951224;28;20047;-74
2020/12/18 07:36:16;;;;;;;70.22;14.20;;;;;;;;;;4952101;28;19968;-74
2020/12/18 07:38:43;;;;;;;70.35;13.52;;;;;;;;;;4944611;29;20071;-75
2020/12/18 07:41:14;;;;;;;64.35;14.48;;;;;;;;;;4939893;29;20460;-75
2020/12/18 07:43:42;;;;;;;86.55;14.85;;;;;;;;;;4951920;29;20130;-74
2020/12/18 07:46:09;;;;;;;68.68;14.48;;;;;;;;;;4942212;29;20031;-74
2020/12/18 07:48:36;;;;;;;70.53;15.27;;;;;;;;;;4949155;29;20075;-74
2020/12/18 07:51:09;;;;;;;77.78;14.50;;;;;;;;;;4949354;28;20047;-74
2020/12/18 07:53:37;;;;;;;79.07;15.18;;;;;;;;;;4937583;29;20071;-75
2020/12/18 07:56:04;;;;;;;76.95;15.90;;;;;;;;;;4948289;29;20404;-74
2020/12/18 07:58:30;;;;;;;80.15;14.88;;;;;;;;;;4949247;28;20730;-75
2020/12/18 08:01:07;;;;;;;100.37;18.03;;;;;;;;;;4942657;29;20040;-74
2020/12/18 08:03:33;;;;;;;104.53;29.92;;;;;;;;;;4946404;29;20467;-75
2020/12/18 08:06:03;;;;;;;122.63;43.50;;;;;;;;;;4944109;29;20121;-74
2020/12/18 08:08:31;;;;;;;89.97;18.30;;;;;;;;;;4953040;28;20058;-74
2020/12/18 08:10:58;;;;;;;70.95;15.93;;;;;;;;;;4963887;28;20045;-75
2020/12/18 08:13:25;;;;;;;96.47;15.70;;;;;;;;;;4965287;28;20053;-74
2020/12/18 08:16:04;;;;;;;85.15;14.60;;;;;;;;;;4959930;28;20084;-74
2020/12/18 08:18:32;;;;;;;78.75;15.20;;;;;;;;;;4969665;28;20098;-74
2020/12/18 08:20:58;;;;;;;67.30;14.23;;;;;;;;;;4968118;28;20490;-74
2020/12/18 08:23:25;;;;;;;76.70;13.00;;;;;;;;;;4965188;28;20043;-74
2020/12/18 08:25:52;;;;;;;78.68;13.70;;;;;;;;;;4958511;28;20558;-75
2020/12/18 08:28:20;;;;;;;71.35;12.57;;;;;;;;;;4961902;28;20501;-74
2020/12/18 08:30:47;;;;;;;67.13;14.23;;;;;;;;;;4964400;28;20050;-74
2020/12/18 08:33:16;;;;;;;77.43;13.75;;;;;;;;;;4964850;28;20043;-74
2020/12/18 08:35:45;;;;;;;65.50;12.73;;;;;;;;;;4963571;28;20055;-74
2020/12/18 08:38:11;;;;;;;69.55;13.40;;;;;;;;;;4969543;28;20056;-74
2020/12/18 08:40:42;;;;;;;66.55;11.73;;;;;;;;;;4968378;28;20055;-74
2020/12/18 08:43:10;;;;;;;74.63;13.05;;;;;;;;;;4966063;28;20050;-74
2020/12/18 08:45:43;;;;;;;74.32;13.32;;;;;;;;;;4964836;28;20054;-74
2020/12/18 08:48:09;;;;;;;62.38;12.32;;;;;;;;;;4970226;28;20125;-74
2020/12/18 08:50:37;;;;;;;52.25;12.68;;;;;;;;;;4963395;28;20172;-74
2020/12/18 08:53:09;;;;;;;75.95;12.02;;;;;;;;;;4972796;28;20039;-74
2020/12/18 08:55:36;;;;;;;52.47;10.43;;;;;;;;;;4966482;28;20471;-74
2020/12/18 08:58:09;;;;;;;51.88;11.13;;;;;;;;;;4952901;28;20105;-74
2020/12/18 09:00:36;;;;;;;66.75;11.52;;;;;;;;;;4964598;28;20158;-74
2020/12/18 09:03:02;;;;;;;58.00;10.63;;;;;;;;;;4966930;28;20042;-74
2020/12/18 09:05:33;;;;;;;50.22;10.45;;;;;;;;;;4964665;28;20579;-74
2020/12/18 09:08:04;;;;;;;56.15;9.75;;;;;;;;;;4962969;28;20050;-74
2020/12/18 09:10:36;;;;;;;63.05;9.80;;;;;;;;;;4949763;28;20209;-74
2020/12/18 09:13:14;;;;;;;55.03;10.10;;;;;;;;;;4951225;29;20054;-74
2020/12/18 09:15:42;;;;;;;56.45;9.52;;;;;;;;;;4939075;29;20047;-74
2020/12/18 09:18:10;;;;;;;59.50;9.93;;;;;;;;;;4946694;29;20585;-75
2020/12/18 09:20:37;;;;;;;50.22;8.65;;;;;;;;;;4948880;28;20102;-74
2020/12/18 09:23:04;;;;;;;52.60;9.88;;;;;;;;;;4953155;28;20038;-75
2020/12/18 09:25:57;;;;;;;69.07;10.88;;;;;;;;;;4941544;29;20048;-75
2020/12/18 09:28:24;;;;;;;59.92;10.07;;;;;;;;;;4944325;29;20059;-74
2020/12/18 09:30:51;;;;;;;63.42;9.45;;;;;;;;;;4945791;29;20487;-74
2020/12/18 09:33:20;;;;;;;49.38;9.55;;;;;;;;;;4939419;29;20051;-75
2020/12/18 09:35:46;;;;;;;55.38;9.60;;;;;;;;;;4950354;28;20091;-75
2020/12/18 09:38:12;;;;;;;48.92;9.32;;;;;;;;;;4946873;29;20039;-75
2020/12/18 09:40:39;;;;;;;52.63;8.95;;;;;;;;;;4943997;29;20039;-75
2020/12/18 09:43:05;;;;;;;53.80;9.38;;;;;;;;;;4947140;29;20110;-75
2020/12/18 09:45:42;;;;;;;50.33;8.73;;;;;;;;;;4947299;29;20071;-74
2020/12/18 09:48:08;;;;;;;63.67;9.52;;;;;;;;;;4947396;29;20047;-75
2020/12/18 09:50:34;;;;;;;48.47;8.02;;;;;;;;;;4944765;29;20147;-75
2020/12/18 09:53:00;;;;;;;48.20;8.25;;;;;;;;;;4948658;29;20059;-75
2020/12/18 09:55:27;;;;;;;50.42;8.00;;;;;;;;;;4950687;29;20039;-75
2020/12/18 09:57:53;;;;;;;49.83;7.95;;;;;;;;;;4950099;29;20594;-74
2020/12/18 10:00:19;;;;;;;52.03;7.28;;;;;;;;;;4944548;29;20036;-75
2020/12/18 10:02:45;;;;;;;50.65;8.02;;;;;;;;;;4943939;29;20487;-74
2020/12/18 10:05:12;;;;;;;46.65;7.72;;;;;;;;;;4944696;29;20554;-75
2020/12/18 10:07:38;;;;;;;45.75;7.38;;;;;;;;;;4955144;28;20051;-75
2020/12/18 10:10:04;;;;;;;44.58;7.40;;;;;;;;;;4954401;28;20055;-74
2020/12/18 10:12:30;;;;;;;49.63;6.65;;;;;;;;;;4967013;28;20058;-75
2020/12/18 10:14:57;;;;;;;55.03;7.07;;;;;;;;;;4955210;28;20545;-75
2020/12/18 10:17:23;;;;;;;43.33;6.78;;;;;;;;;;4961660;28;20565;-75
2020/12/18 10:19:51;;;;;;;41.63;6.93;;;;;;;;;;4963818;28;20069;-75
2020/12/18 10:22:18;;;;;;;36.72;5.60;;;;;;;;;;4968378;28;20133;-75
2020/12/18 10:24:44;;;;;;;47.83;6.80;;;;;;;;;;4962300;28;20042;-75
2020/12/18 10:27:11;;;;;;;53.92;7.75;;;;;;;;;;4966610;28;20097;-75
2020/12/18 10:29:37;;;;;;;52.60;7.20;;;;;;;;;;4965589;28;20051;-74
2020/12/18 10:32:04;;;;;;;54.03;7.22;;;;;;;;;;4963487;28;20047;-75
2020/12/18 10:34:30;;;;;;;39.13;7.35;;;;;;;;;;4962619;28;20035;-75
2020/12/18 10:36:56;;;;;;;49.03;6.68;;;;;;;;;;4961142;28;20392;-75
2020/12/18 10:39:26;;;;;;;45.55;7.13;;;;;;;;;;4965184;28;20058;-75
2020/12/18 10:41:52;;;;;;;36.28;6.00;;;;;;;;;;4969272;28;20069;-75
2020/12/18 10:44:19;;;;;;;36.85;6.57;;;;;;;;;;4965596;28;20043;-75
2020/12/18 10:46:46;;;;;;;38.17;6.40;;;;;;;;;;4959886;28;20043;-75
2020/12/18 10:49:13;;;;;;;32.15;6.00;;;;;;;;;;4960912;28;20043;-74
2020/12/18 10:51:41;;;;;;;26.92;5.63;;;;;;;;;;4972519;28;20051;-75
2020/12/18 10:54:07;;;;;;;;;;;;;;;;;;4969405;28;20141;-75
2020/12/18 10:56:38;;;;;;;25.42;4.78;;;;;;;;;;4963004;28;19922;-75
2020/12/18 10:59:04;;;;;;;20.85;5.90;;;;;;;;;;4965715;28;20061;-74
2020/12/18 11:01:30;;;;;;;16.25;4.80;;;;;;;;;;4964241;28;20051;-75
2020/12/18 11:03:57;;;;;;;17.90;5.07;;;;;;;;;;4963371;28;20716;-75
2020/12/18 11:06:23;;;;;;;13.27;3.83;;;;;;;;;;4972556;28;20054;-75
2020/12/18 11:08:49;;;;;;;18.05;4.18;;;;;;;;;;4964886;28;20489;-76
2020/12/18 11:11:15;;;;;;;9.10;3.67;;;;;;;;;;4969091;28;20054;-76
2020/12/18 11:13:42;;;;;;;7.35;3.08;;;;;;;;;;4964686;28;20073;-75
2020/12/18 11:16:08;;;;;;;11.15;4.13;;;;;;;;;;4964195;28;20042;-75
2020/12/18 11:18:36;;;;;;;10.38;4.30;;;;;;;;;;4966527;28;20043;-76
2020/12/18 11:21:02;;;;;;;;;;;;;;;;;;4966777;28;20039;-76
2020/12/18 11:23:28;;;;;;;11.85;4.00;;;;;;;;;;4970344;28;19983;-76
2020/12/18 11:25:55;;;;;;;12.50;4.30;;;;;;;;;;4969101;28;20101;-76
2020/12/18 11:28:21;;;;;;;14.52;3.92;;;;;;;;;;4968929;28;20565;-76
2020/12/18 11:30:47;;;;;;;15.23;4.70;;;;;;;;;;4952900;28;20039;-75
2020/12/18 11:33:14;;;;;;;21.35;5.47;;;;;;;;;;4964657;28;20383;-76
2020/12/18 11:35:40;;;;;;;26.92;6.57;;;;;;;;;;4960737;28;20130;-76
2020/12/18 11:38:06;;;;;;;17.65;6.53;;;;;;;;;;4961008;28;20510;-75
2020/12/18 11:40:33;;;;;;;29.52;7.72;;;;;;;;;;4973274;28;20038;-75
2020/12/18 11:43:00;;;;;;;31.70;7.57;;;;;;;;;;4971392;28;20117;-75
2020/12/18 11:45:27;;;;;;;42.03;9.53;;;;;;;;;;4963193;28;20042;-76
2020/12/18 11:47:53;;;;;;;41.58;9.55;;;;;;;;;;4967106;28;20290;-75
2020/12/18 11:50:19;;;;;;;38.58;10.10;;;;;;;;;;4963389;28;20046;-75
2020/12/18 11:52:46;;;;;;;47.80;10.20;;;;;;;;;;4968931;28;20049;-75
2020/12/18 11:55:12;;;;;;;46.55;8.98;;;;;;;;;;4960324;28;20502;-76
2020/12/18 11:57:42;;;;;;;46.92;11.27;;;;;;;;;;4973105;28;20101;-75
2020/12/18 12:00:09;;;;;;;53.55;11.52;;;;;;;;;;4962437;28;20201;-75
2020/12/18 12:02:39;;;;;;;66.50;13.90;;;;;;;;;;4940564;28;20139;-75
2020/12/18 12:05:05;;;;;;;63.83;12.68;;;;;;;;;;4971800;28;20055;-75
2020/12/18 12:07:32;;;;;;;57.45;13.57;;;;;;;;;;4945801;28;20498;-75
2020/12/18 12:09:58;;;;;;;78.07;14.25;;;;;;;;;;4963831;28;20047;-75
2020/12/18 12:12:24;;;;;;;79.07;14.30;;;;;;;;;;4968782;28;20090;-75
2020/12/18 12:14:50;;;;;;;91.82;16.13;;;;;;;;;;4965660;28;20053;-75
2020/12/18 12:17:16;;;;;;;86.15;15.88;;;;;;;;;;4966248;28;20050;-76
2020/12/18 12:19:43;;;;;;;69.85;15.48;;;;;;;;;;4960309;28;20417;-75
2020/12/18 12:22:09;;;;;;;81.90;16.00;;;;;;;;;;4965721;28;20050;-75
2020/12/18 12:24:42;;;;;;;63.00;14.60;;;;;;;;;;4970001;28;20452;-75
2020/12/18 12:27:09;;;;;;;93.45;17.83;;;;;;;;;;4968106;28;20049;-75
2020/12/18 12:29:36;;;;;;;109.50;16.75;;;;;;;;;;4963718;28;20034;-75
2020/12/18 12:32:02;;;;;;;70.90;16.77;;;;;;;;;;4959261;28;20035;-75
2020/12/18 12:34:28;;;;;;;69.55;16.77;;;;;;;;;;4960829;28;20058;-75
2020/12/18 12:36:55;;;;;;;84.97;16.98;;;;;;;;;;4964165;28;20053;-75
2020/12/18 12:39:21;;;;;;;70.80;17.05;;;;;;;;;;4962053;28;20053;-76
2020/12/18 12:41:47;;;;;;;65.05;15.85;;;;;;;;;;4956646;28;20588;-75
2020/12/18 12:44:14;;;;;;;76.53;17.05;;;;;;;;;;4968634;28;20047;-75
2020/12/18 12:46:40;;;;;;;77.03;18.20;;;;;;;;;;4964467;28;20058;-75
2020/12/18 12:49:06;;;;;;;73.63;15.43;;;;;;;;;;4967370;28;20047;-75
2020/12/18 12:51:33;;;;;;;84.18;18.92;;;;;;;;;;4968638;28;20055;-75
2020/12/18 12:53:59;;;;;;;81.00;17.02;;;;;;;;;;4963452;28;20085;-75
2020/12/18 12:56:26;;;;;;;104.53;19.98;;;;;;;;;;4968941;28;20065;-75
2020/12/18 12:58:52;;;;;;;77.88;19.23;;;;;;;;;;4962362;28;20071;-75
2020/12/18 13:01:19;;;;;;;80.00;19.05;;;;;;;;;;4961453;28;20049;-75
2020/12/18 13:03:45;;;;;;;94.72;20.95;;;;;;;;;;4962019;28;20047;-75
2020/12/18 13:06:11;;;;;;;71.25;18.83;;;;;;;;;;4963098;28;20097;-76
2020/12/18 13:08:38;;;;;;;80.18;19.83;;;;;;;;;;4960017;28;20039;-75
2020/12/18 13:11:04;;;;;;;81.20;19.23;;;;;;;;;;4963297;28;20099;-75
2020/12/18 13:13:31;;;;;;;71.20;18.40;;;;;;;;;;4964278;28;20054;-75
2020/12/18 13:15:57;;;;;;;79.47;20.00;;;;;;;;;;4961754;28;20047;-75
2020/12/18 13:18:23;;;;;;;88.55;19.73;;;;;;;;;;4965173;28;20043;-75
2020/12/18 13:20:49;;;;;;;82.28;20.50;;;;;;;;;;4967007;28;20047;-75
2020/12/18 13:23:16;;;;;;;94.68;20.52;;;;;;;;;;4962491;28;20479;-75
2020/12/18 13:25:42;;;;;;;86.70;20.65;;;;;;;;;;4955427;28;20098;-75
2020/12/18 13:28:08;;;;;;;72.80;20.25;;;;;;;;;;4971599;28;20057;-75
2020/12/18 13:30:39;;;;;;;76.03;21.38;;;;;;;;;;4966576;28;20060;-75
2020/12/18 13:33:05;;;;;;;71.28;20.15;;;;;;;;;;4964591;28;20059;-75
2020/12/18 13:35:32;;;;;;;79.53;21.67;;;;;;;;;;4963880;28;20130;-75
2020/12/18 13:37:58;;;;;;;69.95;21.05;;;;;;;;;;4953968;28;20054;-75
2020/12/18 13:40:24;;;;;;;78.22;22.33;;;;;;;;;;4963676;28;20050;-75
2020/12/18 13:42:50;;;;;;;64.80;20.42;;;;;;;;;;4964627;28;20110;-75
2020/12/18 13:45:17;;;;;;;79.07;22.52;;;;;;;;;;4965228;28;20542;-75
2020/12/18 13:47:46;;;;;;;77.53;21.43;;;;;;;;;;4971490;28;20054;-75
2020/12/18 13:50:13;;;;;;;80.00;21.13;;;;;;;;;;4958513;28;20513;-75
2020/12/18 13:52:39;;;;;;;77.75;22.75;;;;;;;;;;4963322;28;20458;-75
2020/12/18 13:55:06;;;;;;;87.20;21.33;;;;;;;;;;4970285;28;20454;-75
2020/12/18 13:57:33;;;;;;;66.65;22.60;;;;;;;;;;4963002;28;20627;-75
2020/12/18 13:59:59;;;;;;;64.15;22.73;;;;;;;;;;4964576;28;20138;-75
2020/12/18 14:02:25;;;;;;;80.63;22.60;;;;;;;;;;4958739;28;20043;-75
2020/12/18 14:04:52;;;;;;;76.00;23.75;;;;;;;;;;4948823;28;20503;-75
2020/12/18 14:07:18;;;;;;;78.55;21.63;;;;;;;;;;4961333;28;20103;-75
2020/12/18 14:09:46;;;;;;;75.18;25.00;;;;;;;;;;4966081;28;20050;-75
2020/12/18 14:12:12;;;;;;;80.88;25.73;;;;;;;;;;4961692;28;20113;-75
2020/12/18 14:14:45;;;;;;;86.38;25.60;;;;;;;;;;4959827;28;20545;-75
2020/12/18 14:17:12;;;;;;;85.55;26.45;;;;;;;;;;4959938;28;20435;-75
2020/12/18 14:19:39;;;;;;;;;;;;;;;;;;4955604;28;20102;-75
2020/12/18 14:22:05;;;;;;;86.18;27.20;;;;;;;;;;4963657;28;20453;-75
2020/12/18 14:24:32;;;;;;;82.25;25.70;;;;;;;;;;4971024;28;20459;-75
2020/12/18 14:27:00;;;;;;;86.97;25.65;;;;;;;;;;4970904;28;20043;-74
2020/12/18 14:29:28;;;;;;;75.35;26.35;;;;;;;;;;4966700;28;20071;-75
2020/12/18 14:31:54;;;;;;;;;;;;;;;;;;4965405;28;20526;-75
2020/12/18 14:34:20;;;;;;;97.63;27.95;;;;;;;;;;4964112;28;19930;-74
2020/12/18 14:36:46;;;;;;;75.85;27.25;;;;;;;;;;4969452;28;20119;-75
2020/12/18 14:39:13;;;;;;;85.68;27.27;;;;;;;;;;4963368;28;20106;-75
2020/12/18 14:41:39;;;;;;;87.38;27.85;;;;;;;;;;4973114;28;20053;-74
2020/12/18 14:44:05;;;;;;;82.20;26.75;;;;;;;;;;4960504;28;20643;-74
2020/12/18 14:46:31;;;;;;;84.85;27.83;;;;;;;;;;4966832;28;20054;-74